sensor_id;sensor_type;location;lat;lon;timestamp;P1;durP1;ratioP1;P2;durP2;ratioP2
34741;SDS011;20968;42.696;23.360;2022-10-04T00:02:02;1.20;;;1.13;;
34741;SDS011;20968;42.696;23.360;2022-10-04T00:04:42;1.50;;;1.13;;
34741;SDS011;20968;42.696;23.360;2022-10-04T00:12:31;1.25;;;1.10;;
34741;SDS011;20968;42.696;23.360;2022-10-04T00:15:03;1.73;;;1.23;;
34741;SDS011;20968;42.696;23.360;2022-10-04T00:17:31;5.38;;;1.27;;
34741;SDS011;20968;42.696;23.360;2022-10-04T00:20:00;3.13;;;1.13;;
34741;SDS011;20968;42.696;23.360;2022-10-04T00:22:29;4.05;;;1.50;;
34741;SDS011;20968;42.696;23.360;2022-10-04T00:25:15;1.45;;;1.10;;
34741;SDS011;20968;42.696;23.360;2022-10-04T00:33:47;9.38;;;1.25;;
34741;SDS011;20968;42.696;23.360;2022-10-04T00:44:04;5.43;;;1.20;;
34741;SDS011;20968;42.696;23.360;2022-10-04T00:46:34;4.18;;;1.42;;
34741;SDS011;20968;42.696;23.360;2022-10-04T00:49:05;1.27;;;1.17;;
34741;SDS011;20968;42.696;23.360;2022-10-04T00:51:43;3.40;;;1.20;;
34741;SDS011;20968;42.696;23.360;2022-10-04T00:54:33;2.83;;;1.33;;
34741;SDS011;20968;42.696;23.360;2022-10-04T00:57:33;3.42;;;1.20;;
34741;SDS011;20968;42.696;23.360;2022-10-04T01:00:02;0.70;;;0.70;;
34741;SDS011;20968;42.696;23.360;2022-10-04T01:05:19;2.95;;;1.23;;
34741;SDS011;20968;42.696;23.360;2022-10-04T01:07:52;1.38;;;1.00;;
34741;SDS011;20968;42.696;23.360;2022-10-04T01:10:25;4.45;;;1.23;;
34741;SDS011;20968;42.696;23.360;2022-10-04T01:15:34;1.08;;;0.98;;
34741;SDS011;20968;42.696;23.360;2022-10-04T01:23:32;1.77;;;1.10;;
34741;SDS011;20968;42.696;23.360;2022-10-04T01:26:03;3.28;;;0.90;;
34741;SDS011;20968;42.696;23.360;2022-10-04T01:28:31;2.85;;;0.93;;
34741;SDS011;20968;42.696;23.360;2022-10-04T01:30:58;1.67;;;1.15;;
34741;SDS011;20968;42.696;23.360;2022-10-04T01:33:24;3.03;;;1.90;;
34741;SDS011;20968;42.696;23.360;2022-10-04T01:35:49;1.75;;;0.90;;
34741;SDS011;20968;42.696;23.360;2022-10-04T01:38:16;1.08;;;0.70;;
34741;SDS011;20968;42.696;23.360;2022-10-04T01:40:44;2.90;;;1.08;;
34741;SDS011;20968;42.696;23.360;2022-10-04T01:43:16;1.10;;;1.00;;
34741;SDS011;20968;42.696;23.360;2022-10-04T01:45:50;1.00;;;0.80;;
34741;SDS011;20968;42.696;23.360;2022-10-04T01:48:23;1.63;;;1.20;;
34741;SDS011;20968;42.696;23.360;2022-10-04T01:50:57;2.00;;;1.10;;
34741;SDS011;20968;42.696;23.360;2022-10-04T01:53:29;2.15;;;1.10;;
34741;SDS011;20968;42.696;23.360;2022-10-04T01:56:04;2.90;;;0.93;;
34741;SDS011;20968;42.696;23.360;2022-10-04T01:58:54;2.08;;;1.10;;
34741;SDS011;20968;42.696;23.360;2022-10-04T02:01:46;1.15;;;1.05;;
34741;SDS011;20968;42.696;23.360;2022-10-04T02:04:28;3.00;;;1.50;;
34741;SDS011;20968;42.696;23.360;2022-10-04T02:07:00;3.78;;;1.35;;
34741;SDS011;20968;42.696;23.360;2022-10-04T02:09:31;4.90;;;1.15;;
34741;SDS011;20968;42.696;23.360;2022-10-04T02:12:03;8.75;;;1.25;;
34741;SDS011;20968;42.696;23.360;2022-10-04T02:14:32;5.07;;;0.88;;
34741;SDS011;20968;42.696;23.360;2022-10-04T02:17:04;2.25;;;1.13;;
34741;SDS011;20968;42.696;23.360;2022-10-04T02:19:35;1.25;;;0.80;;
34741;SDS011;20968;42.696;23.360;2022-10-04T02:22:06;0.68;;;0.68;;
34741;SDS011;20968;42.696;23.360;2022-10-04T02:24:34;4.78;;;1.27;;
34741;SDS011;20968;42.696;23.360;2022-10-04T02:27:03;1.90;;;0.80;;
34741;SDS011;20968;42.696;23.360;2022-10-04T02:29:30;0.85;;;0.85;;
34741;SDS011;20968;42.696;23.360;2022-10-04T02:31:56;1.52;;;1.05;;
34741;SDS011;20968;42.696;23.360;2022-10-04T02:34:41;0.95;;;0.85;;
34741;SDS011;20968;42.696;23.360;2022-10-04T02:37:08;2.10;;;1.05;;
34741;SDS011;20968;42.696;23.360;2022-10-04T02:39:41;1.42;;;1.17;;
34741;SDS011;20968;42.696;23.360;2022-10-04T02:42:13;9.48;;;0.90;;
34741;SDS011;20968;42.696;23.360;2022-10-04T02:44:49;1.80;;;1.20;;
34741;SDS011;20968;42.696;23.360;2022-10-04T02:47:22;1.48;;;1.08;;
34741;SDS011;20968;42.696;23.360;2022-10-04T02:49:54;0.93;;;0.80;;
34741;SDS011;20968;42.696;23.360;2022-10-04T02:52:29;1.88;;;1.10;;
34741;SDS011;20968;42.696;23.360;2022-10-04T02:55:03;2.83;;;1.10;;
34741;SDS011;20968;42.696;23.360;2022-10-04T02:57:39;3.28;;;1.10;;
34741;SDS011;20968;42.696;23.360;2022-10-04T03:05:36;1.73;;;1.00;;
34741;SDS011;20968;42.696;23.360;2022-10-04T03:08:03;7.45;;;1.25;;
34741;SDS011;20968;42.696;23.360;2022-10-04T03:10:29;1.92;;;1.00;;
34741;SDS011;20968;42.696;23.360;2022-10-04T03:12:55;7.43;;;1.17;;
34741;SDS011;20968;42.696;23.360;2022-10-04T03:15:21;2.38;;;1.25;;
34741;SDS011;20968;42.696;23.360;2022-10-04T03:17:47;1.67;;;1.25;;
34741;SDS011;20968;42.696;23.360;2022-10-04T03:20:15;3.10;;;0.85;;
34741;SDS011;20968;42.696;23.360;2022-10-04T03:22:45;3.88;;;1.30;;
34741;SDS011;20968;42.696;23.360;2022-10-04T03:25:22;1.00;;;0.90;;
34741;SDS011;20968;42.696;23.360;2022-10-04T03:27:52;1.92;;;1.13;;
34741;SDS011;20968;42.696;23.360;2022-10-04T03:30:20;1.88;;;1.00;;
34741;SDS011;20968;42.696;23.360;2022-10-04T03:32:46;2.40;;;1.40;;
34741;SDS011;20968;42.696;23.360;2022-10-04T03:35:16;7.57;;;0.85;;
34741;SDS011;20968;42.696;23.360;2022-10-04T03:37:52;1.98;;;1.30;;
34741;SDS011;20968;42.696;23.360;2022-10-04T03:40:20;3.35;;;1.50;;
34741;SDS011;20968;42.696;23.360;2022-10-04T03:42:51;0.90;;;0.90;;
34741;SDS011;20968;42.696;23.360;2022-10-04T03:45:17;4.32;;;1.52;;
34741;SDS011;20968;42.696;23.360;2022-10-04T03:47:45;2.30;;;1.38;;
34741;SDS011;20968;42.696;23.360;2022-10-04T03:50:25;4.88;;;1.67;;
34741;SDS011;20968;42.696;23.360;2022-10-04T03:52:57;6.93;;;1.30;;
34741;SDS011;20968;42.696;23.360;2022-10-04T03:55:37;8.80;;;1.77;;
34741;SDS011;20968;42.696;23.360;2022-10-04T03:58:11;3.22;;;1.15;;
34741;SDS011;20968;42.696;23.360;2022-10-04T04:00:44;9.88;;;1.52;;
34741;SDS011;20968;42.696;23.360;2022-10-04T04:03:27;2.28;;;1.25;;
34741;SDS011;20968;42.696;23.360;2022-10-04T04:05:59;1.52;;;1.20;;
34741;SDS011;20968;42.696;23.360;2022-10-04T04:08:36;4.95;;;1.52;;
34741;SDS011;20968;42.696;23.360;2022-10-04T04:11:09;3.38;;;1.60;;
34741;SDS011;20968;42.696;23.360;2022-10-04T04:16:41;12.13;;;2.40;;
34741;SDS011;20968;42.696;23.360;2022-10-04T04:19:11;11.13;;;2.28;;
34741;SDS011;20968;42.696;23.360;2022-10-04T04:21:40;7.40;;;2.08;;
34741;SDS011;20968;42.696;23.360;2022-10-04T04:24:16;10.32;;;2.55;;
34741;SDS011;20968;42.696;23.360;2022-10-04T04:26:49;9.30;;;1.83;;
34741;SDS011;20968;42.696;23.360;2022-10-04T04:29:31;6.30;;;2.47;;
34741;SDS011;20968;42.696;23.360;2022-10-04T04:32:17;14.65;;;2.50;;
34741;SDS011;20968;42.696;23.360;2022-10-04T04:34:51;27.77;;;3.83;;
34741;SDS011;20968;42.696;23.360;2022-10-04T04:37:21;3.05;;;2.00;;
34741;SDS011;20968;42.696;23.360;2022-10-04T04:39:50;16.52;;;3.95;;
34741;SDS011;20968;42.696;23.360;2022-10-04T04:44:57;10.13;;;2.90;;
34741;SDS011;20968;42.696;23.360;2022-10-04T04:49:56;9.60;;;2.45;;
34741;SDS011;20968;42.696;23.360;2022-10-04T04:52:27;5.85;;;1.52;;
34741;SDS011;20968;42.696;23.360;2022-10-04T04:54:53;6.32;;;1.70;;
34741;SDS011;20968;42.696;23.360;2022-10-04T04:57:21;3.90;;;1.90;;
34741;SDS011;20968;42.696;23.360;2022-10-04T04:59:48;6.72;;;2.45;;
34741;SDS011;20968;42.696;23.360;2022-10-04T05:02:26;8.77;;;3.17;;
34741;SDS011;20968;42.696;23.360;2022-10-04T05:07:45;5.30;;;3.03;;
34741;SDS011;20968;42.696;23.360;2022-10-04T05:10:36;7.47;;;2.10;;
34741;SDS011;20968;42.696;23.360;2022-10-04T05:13:10;8.27;;;3.03;;
34741;SDS011;20968;42.696;23.360;2022-10-04T05:15:37;3.95;;;2.92;;
34741;SDS011;20968;42.696;23.360;2022-10-04T05:18:20;4.80;;;2.42;;
34741;SDS011;20968;42.696;23.360;2022-10-04T05:20:54;3.17;;;1.83;;
34741;SDS011;20968;42.696;23.360;2022-10-04T05:23:21;4.10;;;1.85;;
34741;SDS011;20968;42.696;23.360;2022-10-04T05:25:47;8.32;;;2.10;;
34741;SDS011;20968;42.696;23.360;2022-10-04T05:28:14;9.63;;;2.78;;
34741;SDS011;20968;42.696;23.360;2022-10-04T05:36:17;3.40;;;2.35;;
34741;SDS011;20968;42.696;23.360;2022-10-04T05:39:04;5.68;;;2.22;;
34741;SDS011;20968;42.696;23.360;2022-10-04T05:41:49;3.35;;;1.85;;
34741;SDS011;20968;42.696;23.360;2022-10-04T05:44:26;3.65;;;1.63;;
34741;SDS011;20968;42.696;23.360;2022-10-04T05:46:56;3.75;;;2.38;;
34741;SDS011;20968;42.696;23.360;2022-10-04T05:49:27;5.50;;;1.63;;
34741;SDS011;20968;42.696;23.360;2022-10-04T05:52:02;2.75;;;1.60;;
34741;SDS011;20968;42.696;23.360;2022-10-04T05:54:31;2.22;;;1.42;;
34741;SDS011;20968;42.696;23.360;2022-10-04T05:57:42;4.70;;;2.17;;
34741;SDS011;20968;42.696;23.360;2022-10-04T06:00:01;5.15;;;1.45;;
34741;SDS011;20968;42.696;23.360;2022-10-04T06:05:24;1.98;;;1.17;;
34741;SDS011;20968;42.696;23.360;2022-10-04T06:14:13;1.55;;;1.45;;
34741;SDS011;20968;42.696;23.360;2022-10-04T06:19:57;5.30;;;1.90;;
34741;SDS011;20968;42.696;23.360;2022-10-04T06:22:41;4.18;;;1.75;;
34741;SDS011;20968;42.696;23.360;2022-10-04T06:25:13;2.25;;;1.50;;
34741;SDS011;20968;42.696;23.360;2022-10-04T06:31:23;6.65;;;1.70;;
34741;SDS011;20968;42.696;23.360;2022-10-04T06:43:12;1.88;;;1.70;;
34741;SDS011;20968;42.696;23.360;2022-10-04T06:46:09;5.78;;;1.77;;
34741;SDS011;20968;42.696;23.360;2022-10-04T06:54:23;5.30;;;2.05;;
34741;SDS011;20968;42.696;23.360;2022-10-04T07:00:24;4.75;;;1.60;;
34741;SDS011;20968;42.696;23.360;2022-10-04T07:03:08;9.07;;;2.30;;
34741;SDS011;20968;42.696;23.360;2022-10-04T07:05:50;2.42;;;1.25;;
34741;SDS011;20968;42.696;23.360;2022-10-04T07:08:20;4.95;;;1.65;;
34741;SDS011;20968;42.696;23.360;2022-10-04T07:16:28;3.40;;;1.80;;
34741;SDS011;20968;42.696;23.360;2022-10-04T07:19:26;6.32;;;1.48;;
34741;SDS011;20968;42.696;23.360;2022-10-04T07:30:52;4.82;;;1.50;;
34741;SDS011;20968;42.696;23.360;2022-10-04T07:33:21;3.70;;;1.75;;
34741;SDS011;20968;42.696;23.360;2022-10-04T07:35:58;4.07;;;2.67;;
34741;SDS011;20968;42.696;23.360;2022-10-04T07:38:37;2.90;;;1.35;;
34741;SDS011;20968;42.696;23.360;2022-10-04T07:41:33;2.38;;;1.75;;
34741;SDS011;20968;42.696;23.360;2022-10-04T07:44:11;7.43;;;1.08;;
34741;SDS011;20968;42.696;23.360;2022-10-04T07:46:50;4.60;;;1.83;;
34741;SDS011;20968;42.696;23.360;2022-10-04T07:49:20;2.67;;;1.85;;
34741;SDS011;20968;42.696;23.360;2022-10-04T08:00:14;3.58;;;2.22;;
34741;SDS011;20968;42.696;23.360;2022-10-04T08:05:40;10.80;;;1.83;;
34741;SDS011;20968;42.696;23.360;2022-10-04T08:08:22;5.63;;;1.92;;
34741;SDS011;20968;42.696;23.360;2022-10-04T08:25:26;3.95;;;1.30;;
34741;SDS011;20968;42.696;23.360;2022-10-04T08:36:19;2.95;;;1.13;;
34741;SDS011;20968;42.696;23.360;2022-10-04T08:38:56;1.40;;;1.25;;
34741;SDS011;20968;42.696;23.360;2022-10-04T08:47:32;1.55;;;1.45;;
34741;SDS011;20968;42.696;23.360;2022-10-04T08:59:13;2.70;;;1.33;;
34741;SDS011;20968;42.696;23.360;2022-10-04T09:02:06;6.28;;;1.23;;
34741;SDS011;20968;42.696;23.360;2022-10-04T09:16:16;1.48;;;1.20;;
34741;SDS011;20968;42.696;23.360;2022-10-04T09:19:15;3.38;;;1.00;;
34741;SDS011;20968;42.696;23.360;2022-10-04T09:22:52;6.35;;;1.60;;
34741;SDS011;20968;42.696;23.360;2022-10-04T09:48:25;0.98;;;0.95;;
34741;SDS011;20968;42.696;23.360;2022-10-04T10:07:12;2.47;;;0.98;;
34741;SDS011;20968;42.696;23.360;2022-10-04T10:16:47;4.00;;;1.00;;
34741;SDS011;20968;42.696;23.360;2022-10-04T10:19:32;2.05;;;1.25;;
34741;SDS011;20968;42.696;23.360;2022-10-04T10:47:11;4.65;;;1.40;;
34741;SDS011;20968;42.696;23.360;2022-10-04T11:16:16;2.35;;;1.30;;
34741;SDS011;20968;42.696;23.360;2022-10-04T11:28:43;1.50;;;1.00;;
34741;SDS011;20968;42.696;23.360;2022-10-04T11:36:52;0.75;;;0.63;;
34741;SDS011;20968;42.696;23.360;2022-10-04T12:27:26;4.68;;;1.15;;
34741;SDS011;20968;42.696;23.360;2022-10-04T12:47:21;1.48;;;1.00;;
34741;SDS011;20968;42.696;23.360;2022-10-04T12:52:26;4.78;;;1.42;;
34741;SDS011;20968;42.696;23.360;2022-10-04T12:55:01;1.67;;;1.42;;
34741;SDS011;20968;42.696;23.360;2022-10-04T13:17:23;1.20;;;1.10;;
34741;SDS011;20968;42.696;23.360;2022-10-04T13:25:31;3.25;;;2.05;;
34741;SDS011;20968;42.696;23.360;2022-10-04T13:31:04;5.32;;;1.40;;
34741;SDS011;20968;42.696;23.360;2022-10-04T13:33:35;2.88;;;1.70;;
34741;SDS011;20968;42.696;23.360;2022-10-04T14:00:00;2.42;;;1.77;;
34741;SDS011;20968;42.696;23.360;2022-10-04T14:13:57;4.10;;;1.90;;
34741;SDS011;20968;42.696;23.360;2022-10-04T14:19:42;2.20;;;1.77;;
34741;SDS011;20968;42.696;23.360;2022-10-04T14:25:14;4.57;;;2.15;;
34741;SDS011;20968;42.696;23.360;2022-10-04T14:30:59;1.73;;;1.60;;
34741;SDS011;20968;42.696;23.360;2022-10-04T14:36:00;3.78;;;1.98;;
34741;SDS011;20968;42.696;23.360;2022-10-04T14:44:49;2.47;;;1.70;;
34741;SDS011;20968;42.696;23.360;2022-10-04T15:02:21;6.50;;;1.90;;
34741;SDS011;20968;42.696;23.360;2022-10-04T15:07:51;1.70;;;1.60;;
34741;SDS011;20968;42.696;23.360;2022-10-04T15:10:39;4.65;;;2.05;;
34741;SDS011;20968;42.696;23.360;2022-10-04T15:15:58;2.30;;;1.70;;
34741;SDS011;20968;42.696;23.360;2022-10-04T15:23:47;6.55;;;1.63;;
34741;SDS011;20968;42.696;23.360;2022-10-04T15:31:24;7.25;;;4.35;;
34741;SDS011;20968;42.696;23.360;2022-10-04T15:37:06;3.03;;;2.13;;
34741;SDS011;20968;42.696;23.360;2022-10-04T15:42:32;14.00;;;3.00;;
34741;SDS011;20968;42.696;23.360;2022-10-04T15:45:20;5.40;;;1.98;;
34741;SDS011;20968;42.696;23.360;2022-10-04T15:47:51;4.00;;;2.35;;
34741;SDS011;20968;42.696;23.360;2022-10-04T15:50:28;3.90;;;2.10;;
34741;SDS011;20968;42.696;23.360;2022-10-04T15:55:56;3.85;;;2.47;;
34741;SDS011;20968;42.696;23.360;2022-10-04T16:01:23;4.85;;;2.40;;
34741;SDS011;20968;42.696;23.360;2022-10-04T16:07:53;4.68;;;2.47;;
34741;SDS011;20968;42.696;23.360;2022-10-04T16:13:28;5.60;;;2.45;;
34741;SDS011;20968;42.696;23.360;2022-10-04T16:32:21;5.68;;;2.42;;
34741;SDS011;20968;42.696;23.360;2022-10-04T16:35:22;4.63;;;3.08;;
34741;SDS011;20968;42.696;23.360;2022-10-04T16:41:13;4.30;;;2.75;;
34741;SDS011;20968;42.696;23.360;2022-10-04T16:43:53;4.93;;;3.08;;
34741;SDS011;20968;42.696;23.360;2022-10-04T16:46:22;5.78;;;3.38;;
34741;SDS011;20968;42.696;23.360;2022-10-04T16:49:19;6.30;;;2.70;;
34741;SDS011;20968;42.696;23.360;2022-10-04T16:51:59;3.17;;;2.40;;
34741;SDS011;20968;42.696;23.360;2022-10-04T16:54:57;5.47;;;2.85;;
34741;SDS011;20968;42.696;23.360;2022-10-04T16:57:59;6.80;;;3.20;;
34741;SDS011;20968;42.696;23.360;2022-10-04T17:00:48;3.70;;;3.00;;
34741;SDS011;20968;42.696;23.360;2022-10-04T17:03:34;3.90;;;3.33;;
34741;SDS011;20968;42.696;23.360;2022-10-04T17:08:44;5.20;;;2.78;;
34741;SDS011;20968;42.696;23.360;2022-10-04T17:11:27;4.78;;;3.45;;
34741;SDS011;20968;42.696;23.360;2022-10-04T17:13:54;9.57;;;3.50;;
34741;SDS011;20968;42.696;23.360;2022-10-04T17:16:29;11.63;;;3.57;;
34741;SDS011;20968;42.696;23.360;2022-10-04T17:21:30;6.68;;;3.25;;
34741;SDS011;20968;42.696;23.360;2022-10-04T17:24:07;6.57;;;3.15;;
34741;SDS011;20968;42.696;23.360;2022-10-04T17:26:50;6.85;;;3.00;;
34741;SDS011;20968;42.696;23.360;2022-10-04T17:32:54;5.95;;;3.50;;
34741;SDS011;20968;42.696;23.360;2022-10-04T17:50:59;8.63;;;3.83;;
34741;SDS011;20968;42.696;23.360;2022-10-04T17:53:48;5.72;;;3.55;;
34741;SDS011;20968;42.696;23.360;2022-10-04T17:56:50;7.53;;;4.28;;
34741;SDS011;20968;42.696;23.360;2022-10-04T17:59:43;10.13;;;4.13;;
34741;SDS011;20968;42.696;23.360;2022-10-04T18:02:19;8.45;;;4.03;;
34741;SDS011;20968;42.696;23.360;2022-10-04T18:05:17;7.70;;;4.30;;
34741;SDS011;20968;42.696;23.360;2022-10-04T18:07:48;8.32;;;4.22;;
34741;SDS011;20968;42.696;23.360;2022-10-04T18:10:37;4.90;;;3.92;;
34741;SDS011;20968;42.696;23.360;2022-10-04T18:15:57;7.18;;;4.53;;
34741;SDS011;20968;42.696;23.360;2022-10-04T18:18:28;5.70;;;3.83;;
34741;SDS011;20968;42.696;23.360;2022-10-04T18:23:54;8.98;;;5.47;;
34741;SDS011;20968;42.696;23.360;2022-10-04T18:26:22;8.45;;;3.85;;
34741;SDS011;20968;42.696;23.360;2022-10-04T18:28:54;6.43;;;3.63;;
34741;SDS011;20968;42.696;23.360;2022-10-04T18:31:29;4.57;;;3.78;;
34741;SDS011;20968;42.696;23.360;2022-10-04T18:39:52;6.63;;;4.20;;
34741;SDS011;20968;42.696;23.360;2022-10-04T18:44:59;4.75;;;3.50;;
34741;SDS011;20968;42.696;23.360;2022-10-04T18:47:37;7.20;;;3.25;;
34741;SDS011;20968;42.696;23.360;2022-10-04T18:53:41;5.30;;;3.20;;
34741;SDS011;20968;42.696;23.360;2022-10-04T18:56:16;5.63;;;3.63;;
34741;SDS011;20968;42.696;23.360;2022-10-04T19:02:09;5.75;;;3.25;;
34741;SDS011;20968;42.696;23.360;2022-10-04T19:10:43;9.52;;;4.03;;
34741;SDS011;20968;42.696;23.360;2022-10-04T19:21:59;5.50;;;3.50;;
34741;SDS011;20968;42.696;23.360;2022-10-04T19:25:05;9.43;;;3.85;;
34741;SDS011;20968;42.696;23.360;2022-10-04T19:30:21;12.68;;;4.90;;
34741;SDS011;20968;42.696;23.360;2022-10-04T19:33:07;8.93;;;4.10;;
34741;SDS011;20968;42.696;23.360;2022-10-04T19:36:05;8.35;;;4.32;;
34741;SDS011;20968;42.696;23.360;2022-10-04T19:38:42;11.77;;;3.38;;
34741;SDS011;20968;42.696;23.360;2022-10-04T19:47:00;6.95;;;4.40;;
34741;SDS011;20968;42.696;23.360;2022-10-04T19:52:52;7.07;;;3.92;;
34741;SDS011;20968;42.696;23.360;2022-10-04T20:01:15;9.00;;;4.05;;
34741;SDS011;20968;42.696;23.360;2022-10-04T20:03:43;7.53;;;3.63;;
34741;SDS011;20968;42.696;23.360;2022-10-04T20:06:09;6.30;;;3.35;;
34741;SDS011;20968;42.696;23.360;2022-10-04T20:11:20;5.30;;;3.00;;
34741;SDS011;20968;42.696;23.360;2022-10-04T20:19:17;4.38;;;3.00;;
34741;SDS011;20968;42.696;23.360;2022-10-04T20:21:45;13.45;;;3.88;;
34741;SDS011;20968;42.696;23.360;2022-10-04T20:24:16;3.40;;;2.70;;
34741;SDS011;20968;42.696;23.360;2022-10-04T20:27:02;8.93;;;3.17;;
34741;SDS011;20968;42.696;23.360;2022-10-04T20:34:46;7.07;;;3.72;;
34741;SDS011;20968;42.696;23.360;2022-10-04T20:37:13;7.70;;;3.92;;
34741;SDS011;20968;42.696;23.360;2022-10-04T20:45:02;7.53;;;4.28;;
34741;SDS011;20968;42.696;23.360;2022-10-04T20:47:44;7.57;;;4.83;;
34741;SDS011;20968;42.696;23.360;2022-10-04T20:50:17;7.40;;;4.75;;
34741;SDS011;20968;42.696;23.360;2022-10-04T20:52:49;10.77;;;4.97;;
34741;SDS011;20968;42.696;23.360;2022-10-04T20:55:25;10.27;;;5.78;;
34741;SDS011;20968;42.696;23.360;2022-10-04T20:58:02;11.13;;;6.60;;
34741;SDS011;20968;42.696;23.360;2022-10-04T21:00:51;10.90;;;5.63;;
34741;SDS011;20968;42.696;23.360;2022-10-04T21:03:21;14.13;;;6.53;;
34741;SDS011;20968;42.696;23.360;2022-10-04T21:08:27;12.10;;;5.75;;
34741;SDS011;20968;42.696;23.360;2022-10-04T21:16:07;7.63;;;4.88;;
34741;SDS011;20968;42.696;23.360;2022-10-04T21:18:33;8.63;;;5.13;;
34741;SDS011;20968;42.696;23.360;2022-10-04T21:20:59;5.20;;;3.83;;
34741;SDS011;20968;42.696;23.360;2022-10-04T21:26:16;5.07;;;3.40;;
34741;SDS011;20968;42.696;23.360;2022-10-04T21:28:52;8.02;;;3.67;;
34741;SDS011;20968;42.696;23.360;2022-10-04T21:31:22;7.63;;;3.33;;
34741;SDS011;20968;42.696;23.360;2022-10-04T21:33:48;10.20;;;4.65;;
34741;SDS011;20968;42.696;23.360;2022-10-04T21:36:14;4.15;;;3.10;;
34741;SDS011;20968;42.696;23.360;2022-10-04T21:38:39;5.38;;;3.90;;
34741;SDS011;20968;42.696;23.360;2022-10-04T21:41:05;7.78;;;4.03;;
34741;SDS011;20968;42.696;23.360;2022-10-04T21:43:31;5.68;;;3.85;;
34741;SDS011;20968;42.696;23.360;2022-10-04T21:45:57;6.40;;;3.40;;
34741;SDS011;20968;42.696;23.360;2022-10-04T21:48:24;3.75;;;2.90;;
34741;SDS011;20968;42.696;23.360;2022-10-04T21:50:52;5.35;;;3.17;;
34741;SDS011;20968;42.696;23.360;2022-10-04T21:53:18;5.20;;;3.80;;
34741;SDS011;20968;42.696;23.360;2022-10-04T21:55:45;5.93;;;3.53;;
34741;SDS011;20968;42.696;23.360;2022-10-04T21:58:12;6.10;;;3.63;;
34741;SDS011;20968;42.696;23.360;2022-10-04T22:00:38;5.90;;;3.92;;
34741;SDS011;20968;42.696;23.360;2022-10-04T22:03:03;12.85;;;7.03;;
34741;SDS011;20968;42.696;23.360;2022-10-04T22:05:29;41.65;;;23.23;;
34741;SDS011;20968;42.696;23.360;2022-10-04T22:07:55;50.53;;;27.52;;
34741;SDS011;20968;42.696;23.360;2022-10-04T22:10:22;44.42;;;24.05;;
34741;SDS011;20968;42.696;23.360;2022-10-04T22:12:48;51.95;;;29.95;;
34741;SDS011;20968;42.696;23.360;2022-10-04T22:15:14;55.95;;;30.38;;
34741;SDS011;20968;42.696;23.360;2022-10-04T22:17:39;50.08;;;27.50;;
34741;SDS011;20968;42.696;23.360;2022-10-04T22:20:05;41.30;;;20.95;;
34741;SDS011;20968;42.696;23.360;2022-10-04T22:22:30;25.60;;;13.00;;
34741;SDS011;20968;42.696;23.360;2022-10-04T22:24:57;28.80;;;12.63;;
34741;SDS011;20968;42.696;23.360;2022-10-04T22:27:23;28.42;;;12.38;;
34741;SDS011;20968;42.696;23.360;2022-10-04T22:29:49;23.27;;;11.93;;
34741;SDS011;20968;42.696;23.360;2022-10-04T22:32:23;20.98;;;11.48;;
34741;SDS011;20968;42.696;23.360;2022-10-04T22:35:01;22.38;;;9.88;;
34741;SDS011;20968;42.696;23.360;2022-10-04T22:37:39;16.60;;;8.63;;
34741;SDS011;20968;42.696;23.360;2022-10-04T22:40:19;17.63;;;10.07;;
34741;SDS011;20968;42.696;23.360;2022-10-04T22:49:15;37.92;;;20.90;;
34741;SDS011;20968;42.696;23.360;2022-10-04T22:51:44;34.28;;;17.70;;
34741;SDS011;20968;42.696;23.360;2022-10-04T22:54:16;30.90;;;16.35;;
34741;SDS011;20968;42.696;23.360;2022-10-04T22:56:43;31.42;;;16.40;;
34741;SDS011;20968;42.696;23.360;2022-10-04T22:59:11;28.42;;;15.15;;
34741;SDS011;20968;42.696;23.360;2022-10-04T23:01:38;20.23;;;11.57;;
34741;SDS011;20968;42.696;23.360;2022-10-04T23:04:25;16.48;;;9.73;;
34741;SDS011;20968;42.696;23.360;2022-10-04T23:06:51;20.08;;;7.90;;
34741;SDS011;20968;42.696;23.360;2022-10-04T23:09:17;22.65;;;12.75;;
34741;SDS011;20968;42.696;23.360;2022-10-04T23:11:43;21.83;;;11.77;;
34741;SDS011;20968;42.696;23.360;2022-10-04T23:14:09;23.30;;;11.93;;
34741;SDS011;20968;42.696;23.360;2022-10-04T23:16:35;20.70;;;9.63;;
34741;SDS011;20968;42.696;23.360;2022-10-04T23:21:34;16.55;;;9.07;;
34741;SDS011;20968;42.696;23.360;2022-10-04T23:24:23;18.40;;;8.48;;
34741;SDS011;20968;42.696;23.360;2022-10-04T23:26:49;22.20;;;10.68;;
34741;SDS011;20968;42.696;23.360;2022-10-04T23:29:31;17.33;;;8.60;;
34741;SDS011;20968;42.696;23.360;2022-10-04T23:32:00;21.23;;;10.77;;
34741;SDS011;20968;42.696;23.360;2022-10-04T23:34:36;25.23;;;12.80;;
34741;SDS011;20968;42.696;23.360;2022-10-04T23:37:12;18.90;;;10.60;;
34741;SDS011;20968;42.696;23.360;2022-10-04T23:39:40;17.48;;;9.60;;
34741;SDS011;20968;42.696;23.360;2022-10-04T23:42:12;10.98;;;7.85;;
34741;SDS011;20968;42.696;23.360;2022-10-04T23:44:39;14.38;;;8.07;;
34741;SDS011;20968;42.696;23.360;2022-10-04T23:47:13;13.00;;;7.68;;
34741;SDS011;20968;42.696;23.360;2022-10-04T23:49:40;10.27;;;6.43;;
34741;SDS011;20968;42.696;23.360;2022-10-04T23:52:18;17.63;;;6.18;;
34741;SDS011;20968;42.696;23.360;2022-10-04T23:54:47;12.52;;;7.88;;
34741;SDS011;20968;42.696;23.360;2022-10-04T23:57:23;13.38;;;7.97;;
34741;SDS011;20968;42.696;23.360;2022-10-04T23:59:50;14.15;;;7.53;;
